Time;durP1;ratioP1;P1;durP2;ratioP2;P2;SDS_P1;SDS_P2;PMS_P1;PMS_P2;Temp;Humidity;BMP_temperature;BMP_pressure;BME280_temperature;BME280_humidity;BME280_pressure;Samples;Min_cycle;Max_cycle;Signal;HPM_P1;HPM_P2
2021/12/17 00:01:30;;;;;;;12.40;11.07;;;16.30;49.70;;;;;;5096669;28;20120;-37
2021/12/17 00:04:03;;;;;;;12.25;10.95;;;16.30;50.20;;;;;;5098812;28;20023;-37
2021/12/17 00:06:43;;;;;;;13.52;11.50;;;16.30;49.60;;;;;;5115131;28;20015;-38
2021/12/17 00:09:08;;;;;;;;;;;16.30;49.60;;;;;;5096724;28;20019;-37
2021/12/17 00:11:34;;;;;;;13.30;11.73;;;16.30;49.50;;;;;;5095724;28;19930;-37
2021/12/17 00:14:00;;;;;;;12.48;11.18;;;16.30;49.50;;;;;;5114223;28;20103;-37
2021/12/17 00:16:31;;;;;;;13.77;12.32;;;16.20;49.40;;;;;;5113872;28;20059;-37
2021/12/17 00:19:14;;;;;;;12.90;11.50;;;16.20;49.40;;;;;;5114216;28;20024;-37
2021/12/17 00:48:53;;;;;;;13.20;11.80;;;16.20;49.20;;;;;;5098757;28;20035;-37
2021/12/17 00:53:51;;;;;;;13.65;11.98;;;16.20;49.00;;;;;;5096489;28;20478;-37
2021/12/17 00:56:17;;;;;;;13.18;11.85;;;16.20;49.10;;;;;;5078844;28;20016;-37
2021/12/17 00:58:42;;;;;;;13.88;12.23;;;16.20;48.90;;;;;;5113745;28;20012;-37
2021/12/17 01:01:08;;;;;;;14.15;12.57;;;16.20;49.60;;;;;;5113664;28;20030;-37
2021/12/17 01:03:34;;;;;;;13.70;12.27;;;16.20;48.90;;;;;;5113456;28;20523;-38
2021/12/17 01:06:00;;;;;;;14.40;12.65;;;16.20;49.20;;;;;;5113796;28;20016;-38
2021/12/17 01:08:26;;;;;;;14.52;12.15;;;16.10;48.80;;;;;;5095732;28;20462;-40
2021/12/17 01:10:53;;;;;;;13.93;12.50;;;16.10;48.90;;;;;;5095482;28;20541;-38
2021/12/17 01:13:19;;;;;;;14.23;12.73;;;16.10;48.80;;;;;;5113697;28;20091;-38
2021/12/17 01:15:45;;;;;;;14.40;12.90;;;16.10;48.80;;;;;;5113339;28;20131;-38
2021/12/17 01:18:15;;;;;;;13.90;12.40;;;16.10;48.60;;;;;;5095767;28;20549;-38
2021/12/17 01:23:32;;;;;;;13.45;12.05;;;16.10;48.70;;;;;;5113150;28;20436;-39
2021/12/17 01:36:37;;;;;;;14.20;12.60;;;16.10;48.40;;;;;;5113093;28;20156;-39
2021/12/17 01:44:05;;;;;;;14.75;13.20;;;16.10;48.30;;;;;;5112800;28;20030;-37
2021/12/17 01:46:32;;;;;;;13.90;12.50;;;16.00;48.30;;;;;;5112701;28;20027;-37
2021/12/17 01:59:49;;;;;;;14.50;12.45;;;16.00;48.10;;;;;;5117405;28;20031;-37
2021/12/17 02:02:15;;;;;;;14.82;13.00;;;16.10;48.10;;;;;;5117034;28;20020;-39
2021/12/17 02:04:42;;;;;;;13.73;12.15;;;16.00;48.20;;;;;;5098472;28;20347;-39
2021/12/17 02:07:08;;;;;;;14.30;12.82;;;16.00;48.10;;;;;;5116169;28;20372;-39
2021/12/17 02:10:26;;;;;;;14.43;12.93;;;16.00;48.20;;;;;;5097763;28;20386;-39
2021/12/17 02:12:35;;;;;;;13.93;12.45;;;16.10;48.00;;;;;;5115964;28;20016;-39
2021/12/17 02:28:55;;;;;;;14.85;13.35;;;16.00;48.30;;;;;;5100724;28;20077;-42
2021/12/17 02:31:26;;;;;;;14.75;13.15;;;16.00;47.90;;;;;;5099065;28;20024;-40
2021/12/17 02:33:59;;;;;;;13.63;12.07;;;16.00;47.90;;;;;;5098836;28;20054;-40
2021/12/17 02:36:26;;;;;;;13.77;12.32;;;15.90;48.00;;;;;;5116033;28;20008;-40
2021/12/17 02:38:54;;;;;;;13.85;12.45;;;16.00;48.10;;;;;;5116074;28;20086;-41
2021/12/17 02:46:48;;;;;;;13.73;12.32;;;15.90;48.00;;;;;;5100576;28;20152;-42
2021/12/17 02:49:14;;;;;;;14.40;13.00;;;15.90;47.70;;;;;;5115912;28;20374;-43
2021/12/17 02:51:40;;;;;;;13.68;12.23;;;15.90;48.30;;;;;;5115719;28;20035;-43
2021/12/17 02:54:06;;;;;;;14.68;13.18;;;15.90;48.00;;;;;;5097192;28;20015;-46
2021/12/17 02:56:32;;;;;;;15.02;12.60;;;15.90;47.80;;;;;;5097302;28;20020;-44
2021/12/17 02:58:58;;;;;;;13.88;12.35;;;16.00;47.80;;;;;;5080291;28;20020;-45
2021/12/17 03:01:23;;;;;;;14.10;12.63;;;16.00;47.80;;;;;;5080197;28;20027;-43
2021/12/17 03:03:50;;;;;;;13.30;11.95;;;15.90;47.80;;;;;;5097147;28;20110;-42
2021/12/17 03:06:16;;;;;;;14.30;12.32;;;15.90;47.80;;;;;;5097398;28;20022;-45
2021/12/17 03:08:46;;;;;;;13.80;12.40;;;15.90;47.70;;;;;;5114491;28;20012;-42
2021/12/17 03:11:12;;;;;;;13.30;11.90;;;15.90;48.30;;;;;;5115565;28;20092;-44
2021/12/17 03:13:38;;;;;;;13.05;11.75;;;15.90;47.80;;;;;;5115748;28;20015;-46
2021/12/17 03:16:13;;;;;;;12.90;11.60;;;15.90;47.90;;;;;;5097217;28;20525;-45
2021/12/17 03:23:25;;;;;;;13.40;11.88;;;15.90;47.60;;;;;;5115263;28;20016;-44
2021/12/17 03:24:09;;;;;;;13.15;11.85;;;15.90;47.80;;;;;;5115765;28;20035;-42
2021/12/17 03:26:35;;;;;;;12.82;11.43;;;15.90;47.60;;;;;;5097105;28;20420;-45
2021/12/17 03:29:08;;;;;;;13.30;11.90;;;15.90;47.50;;;;;;5115253;28;20016;-43
2021/12/17 03:31:34;;;;;;;13.05;11.65;;;15.80;47.60;;;;;;5115143;28;20018;-41
2021/12/17 03:34:20;;;;;;;13.20;11.80;;;15.90;47.50;;;;;;5115060;28;20020;-43
2021/12/17 03:36:56;;;;;;;13.95;12.07;;;15.90;47.80;;;;;;5114829;28;20028;-41
2021/12/17 03:39:44;;;;;;;13.15;11.80;;;15.90;47.60;;;;;;5114971;28;20023;-42
2021/12/17 03:42:10;;;;;;;12.98;11.60;;;15.90;47.50;;;;;;5114724;28;20039;-37
2021/12/17 03:44:36;;;;;;;13.00;11.70;;;15.80;47.50;;;;;;5114586;28;20378;-37
2021/12/17 03:47:21;;;;;;;13.40;12.00;;;15.90;47.80;;;;;;5099447;28;20043;-37
2021/12/17 03:50:06;;;;;;;13.00;11.57;;;15.90;47.40;;;;;;5114740;28;20026;-37
2021/12/17 03:52:32;;;;;;;12.80;11.50;;;15.90;47.60;;;;;;5096821;28;20032;-37
2021/12/17 03:54:58;;;;;;;12.45;11.23;;;15.90;47.50;;;;;;5114188;28;20094;-37
2021/12/17 03:57:24;;;;;;;12.27;10.98;;;15.80;47.50;;;;;;5114195;28;20107;-37
2021/12/17 03:59:49;;;;;;;12.82;11.07;;;15.90;47.50;;;;;;5114146;28;20053;-37
2021/12/17 04:02:15;;;;;;;12.57;11.27;;;15.80;47.70;;;;;;5095958;28;20451;-39
2021/12/17 04:04:42;;;;;;;12.88;11.45;;;15.80;47.50;;;;;;5096193;28;20016;-39
2021/12/17 04:07:08;;;;;;;12.95;11.65;;;15.80;47.50;;;;;;5114168;28;20011;-41
2021/12/17 04:09:33;;;;;;;13.00;11.57;;;15.80;47.70;;;;;;5115154;28;20011;-39
2021/12/17 04:12:05;;;;;;;12.27;10.98;;;15.80;47.40;;;;;;5114690;28;20023;-39
2021/12/17 04:14:41;;;;;;;12.52;11.23;;;15.80;47.70;;;;;;5097271;28;20031;-39
2021/12/17 04:17:07;;;;;;;12.50;11.20;;;15.90;47.20;;;;;;5097746;28;20062;-39
2021/12/17 04:19:37;;;;;;;11.82;10.63;;;15.90;47.20;;;;;;5113886;28;20015;-39
2021/12/17 04:22:03;;;;;;;12.40;11.10;;;15.90;47.60;;;;;;5114516;28;20028;-40
2021/12/17 04:24:30;;;;;;;12.52;11.02;;;15.90;47.00;;;;;;5114194;28;20065;-40
2021/12/17 04:26:55;;;;;;;12.40;11.10;;;16.00;46.90;;;;;;5095960;28;20023;-41
2021/12/17 04:29:22;;;;;;;12.05;10.85;;;16.00;46.90;;;;;;5078903;28;20016;-41
2021/12/17 04:31:53;;;;;;;12.38;11.05;;;16.00;46.80;;;;;;5079362;28;20028;-41
2021/12/17 04:34:20;;;;;;;11.63;10.43;;;16.10;46.70;;;;;;5114328;28;20035;-40
2021/12/17 04:36:50;;;;;;;11.73;10.52;;;16.20;46.60;;;;;;5114083;28;20525;-41
2021/12/17 04:39:18;;;;;;;11.50;10.30;;;16.30;46.40;;;;;;5096317;28;20043;-40
2021/12/17 04:44:21;;;;;;;12.25;10.95;;;16.50;45.80;;;;;;5113836;28;20031;-42
2021/12/17 04:57:34;;;;;;;11.90;10.60;;;16.90;44.90;;;;;;5098234;28;20080;-43
2021/12/17 05:00:11;;;;;;;11.63;10.13;;;17.00;44.60;;;;;;5113689;28;20102;-43
2021/12/17 05:02:41;;;;;;;10.93;9.82;;;17.10;44.40;;;;;;5113967;28;20023;-37
2021/12/17 05:05:09;;;;;;;11.32;9.95;;;17.10;44.10;;;;;;5096046;28;20485;-37
2021/12/17 05:07:36;;;;;;;11.50;10.30;;;17.30;44.00;;;;;;5113786;28;20077;-37
2021/12/17 05:20:48;;;;;;;10.80;9.70;;;17.60;43.30;;;;;;5098549;28;20500;-40
2021/12/17 05:23:15;;;;;;;10.75;9.60;;;17.60;43.20;;;;;;5114737;28;20016;-39
2021/12/17 05:25:41;;;;;;;10.55;9.45;;;17.70;43.10;;;;;;5114046;28;20008;-40
2021/12/17 05:28:07;;;;;;;10.98;9.80;;;17.70;43.00;;;;;;5113756;28;20020;-41
2021/12/17 05:30:34;;;;;;;10.57;9.35;;;17.80;42.80;;;;;;5114960;28;20003;-40
2021/12/17 05:33:01;;;;;;;11.02;9.70;;;17.90;42.70;;;;;;5118146;28;20015;-40
2021/12/17 05:35:27;;;;;;;10.60;9.50;;;17.90;42.60;;;;;;5099991;28;20019;-39
2021/12/17 05:37:54;;;;;;;11.05;9.20;;;17.90;42.40;;;;;;5099595;28;20054;-40
2021/12/17 05:40:20;;;;;;;11.18;9.73;;;18.00;42.30;;;;;;5118071;28;20016;-40
2021/12/17 05:42:48;;;;;;;10.50;9.13;;;18.10;42.20;;;;;;5084153;28;20359;-41
2021/12/17 05:45:34;;;;;;;10.65;9.40;;;18.20;42.70;;;;;;5119098;28;20015;-41
2021/12/17 05:48:02;;;;;;;10.50;9.25;;;18.20;42.00;;;;;;5118252;28;20007;-41
2021/12/17 05:50:27;;;;;;;10.20;8.77;;;18.20;41.90;;;;;;5118217;28;20011;-41
2021/12/17 05:52:53;;;;;;;10.82;9.35;;;18.30;41.80;;;;;;5118689;28;20012;-41
2021/12/17 05:55:19;;;;;;;9.88;8.88;;;18.30;42.20;;;;;;5099991;28;20385;-41
2021/12/17 05:57:45;;;;;;;10.32;9.23;;;18.40;41.60;;;;;;5118505;28;20164;-42
2021/12/17 06:00:11;;;;;;;10.43;9.10;;;18.50;41.50;;;;;;5100110;28;20048;-41
2021/12/17 06:02:38;;;;;;;10.30;9.18;;;18.50;41.30;;;;;;5117686;28;20028;-41
2021/12/17 06:05:04;;;;;;;10.00;8.85;;;18.60;41.20;;;;;;5116976;28;20016;-43
2021/12/17 06:07:31;;;;;;;10.65;9.05;;;18.60;41.10;;;;;;5098669;28;20020;-42
2021/12/17 06:10:04;;;;;;;9.98;8.90;;;18.70;41.00;;;;;;5117111;28;20019;-43
2021/12/17 06:12:30;;;;;;;10.50;9.25;;;18.80;41.00;;;;;;5117398;28;20024;-42
2021/12/17 06:14:55;;;;;;;9.63;8.63;;;18.80;40.90;;;;;;5116684;28;20076;-44
2021/12/17 06:17:22;;;;;;;10.18;8.80;;;18.80;40.70;;;;;;5116523;28;20051;-42
2021/12/17 06:19:47;;;;;;;9.65;8.65;;;18.90;40.60;;;;;;5116657;28;20015;-46
2021/12/17 06:22:15;;;;;;;11.35;9.13;;;18.90;40.50;;;;;;5116461;28;20473;-37
2021/12/17 06:24:44;;;;;;;10.30;8.65;;;19.00;40.50;;;;;;5116143;28;20037;-37
2021/12/17 06:27:11;;;;;;;9.02;8.13;;;19.00;40.50;;;;;;5098905;28;20027;-37
2021/12/17 06:29:38;;;;;;;9.90;8.80;;;19.10;40.40;;;;;;5098308;28;20012;-37
2021/12/17 06:32:04;;;;;;;10.15;8.48;;;19.10;40.40;;;;;;5116207;28;20020;-37
2021/12/17 06:34:30;;;;;;;10.77;8.82;;;19.10;40.30;;;;;;5116035;28;20160;-37
2021/12/17 06:36:56;;;;;;;10.13;8.82;;;19.10;40.20;;;;;;5081435;28;20016;-37
2021/12/17 06:39:24;;;;;;;10.27;8.98;;;19.20;40.20;;;;;;5116167;28;20483;-37
2021/12/17 06:41:49;;;;;;;9.88;8.88;;;19.20;40.10;;;;;;5115606;28;20035;-40
2021/12/17 06:44:20;;;;;;;9.57;8.00;;;19.20;40.00;;;;;;5115865;28;20016;-39
2021/12/17 06:47:34;;;;;;;9.55;8.55;;;19.30;40.00;;;;;;5098301;28;20016;-39
2021/12/17 06:55:06;;;;;;;10.45;9.05;;;19.40;39.90;;;;;;5115197;28;20398;-40
2021/12/17 07:11:00;;;;;;;10.13;8.73;;;19.50;39.80;;;;;;5099374;28;20111;-37
2021/12/17 07:21:57;;;;;;;9.60;7.75;;;19.60;39.60;;;;;;5097879;28;20047;-37
2021/12/17 07:28:05;;;;;;;8.82;7.93;;;19.60;39.60;;;;;;5097320;28;20015;-38
2021/12/17 07:32:49;;;;;;;9.90;8.35;;;19.70;39.60;;;;;;5114285;28;20038;-38
2021/12/17 07:40:34;;;;;;;12.27;8.07;;;19.80;39.80;;;;;;5099006;28;20107;-36
2021/12/17 07:43:02;;;;;;;11.15;8.32;;;19.80;39.80;;;;;;5095826;28;20027;-38
2021/12/17 07:45:28;;;;;;;11.45;8.85;;;19.80;39.90;;;;;;5113936;28;20030;-38
2021/12/17 07:47:58;;;;;;;12.90;8.40;;;19.80;39.90;;;;;;5114106;28;20007;-38
2021/12/17 07:50:26;;;;;;;12.07;8.75;;;19.90;39.90;;;;;;5097029;28;20014;-38
2021/12/17 07:52:52;;;;;;;14.68;9.15;;;19.90;40.00;;;;;;5095280;28;20482;-39
2021/12/17 07:55:19;;;;;;;13.65;8.50;;;19.90;40.00;;;;;;5113961;28;20043;-38
2021/12/17 07:57:45;;;;;;;14.52;8.70;;;19.90;40.00;;;;;;5114692;28;20019;-40
2021/12/17 08:00:12;;;;;;;11.30;8.13;;;19.90;40.10;;;;;;5113944;28;20016;-39
2021/12/17 08:02:40;;;;;;;14.35;8.88;;;19.90;40.10;;;;;;5113665;28;20026;-36
2021/12/17 08:05:06;;;;;;;12.63;8.88;;;19.90;40.10;;;;;;5095219;28;20180;-39
2021/12/17 08:07:32;;;;;;;12.18;8.35;;;20.00;40.10;;;;;;5095169;28;20043;-37
2021/12/17 08:10:01;;;;;;;14.45;9.10;;;20.00;40.10;;;;;;5095639;28;20088;-36
2021/12/17 08:12:27;;;;;;;14.55;8.63;;;20.00;40.10;;;;;;5113469;28;20072;-36
2021/12/17 08:14:53;;;;;;;12.43;8.57;;;20.00;40.10;;;;;;5113706;28;20023;-36
2021/12/17 08:25:49;;;;;;;13.23;8.95;;;20.10;40.20;;;;;;5113837;28;20026;-36
2021/12/17 08:28:16;;;;;;;11.75;7.93;;;20.10;40.80;;;;;;5097906;28;20019;-36
2021/12/17 08:30:45;;;;;;;13.93;8.68;;;20.10;40.30;;;;;;5095235;28;20012;-37
2021/12/17 08:33:12;;;;;;;14.50;9.13;;;20.10;40.30;;;;;;5113087;28;20016;-37
2021/12/17 08:35:38;;;;;;;12.98;8.95;;;20.10;40.30;;;;;;5113737;28;20035;-36
2021/12/17 08:38:07;;;;;;;14.65;9.05;;;20.10;40.30;;;;;;5113699;28;20024;-37
2021/12/17 08:40:34;;;;;;;14.93;9.50;;;20.20;40.30;;;;;;5095078;28;20023;-38
2021/12/17 08:43:01;;;;;;;15.85;9.20;;;20.20;40.40;;;;;;5077894;28;20039;-37
2021/12/17 08:45:27;;;;;;;14.60;9.43;;;20.20;40.30;;;;;;5113250;28;20011;-37
2021/12/17 08:47:53;;;;;;;14.02;9.25;;;20.20;40.40;;;;;;5078156;28;20027;-37
2021/12/17 08:50:21;;;;;;;14.13;8.70;;;20.20;40.30;;;;;;5113255;28;20385;-37
2021/12/17 08:52:47;;;;;;;16.23;9.73;;;20.20;40.40;;;;;;5113322;28;20024;-37
2021/12/17 08:55:13;;;;;;;14.75;8.82;;;20.20;40.40;;;;;;5094956;28;20026;-37
2021/12/17 08:57:41;;;;;;;14.75;8.85;;;20.20;40.40;;;;;;5112931;28;20012;-37
2021/12/17 09:00:09;;;;;;;14.20;8.70;;;20.20;40.40;;;;;;5094386;28;20107;-37
2021/12/17 09:02:36;;;;;;;15.57;9.23;;;20.20;41.00;;;;;;5112836;28;20024;-38
2021/12/17 09:05:06;;;;;;;14.52;9.35;;;20.30;40.50;;;;;;5112450;28;20486;-37
2021/12/17 09:07:31;;;;;;;14.57;9.10;;;20.30;40.50;;;;;;5116613;28;20043;-37
2021/12/17 09:10:03;;;;;;;15.07;8.90;;;20.20;40.40;;;;;;5116920;28;20038;-37
2021/12/17 09:12:29;;;;;;;14.75;8.90;;;20.30;40.40;;;;;;5098295;28;20011;-37
2021/12/17 09:14:55;;;;;;;15.55;9.48;;;20.30;40.50;;;;;;5081591;28;20041;-37
2021/12/17 09:17:24;;;;;;;13.75;8.65;;;20.30;40.50;;;;;;5098187;28;20502;-37
2021/12/17 09:19:52;;;;;;;14.02;8.80;;;20.30;40.50;;;;;;5116613;28;20024;-38
2021/12/17 09:22:17;;;;;;;15.43;9.13;;;20.30;40.50;;;;;;5116691;28;20019;-37
2021/12/17 09:24:43;;;;;;;17.65;9.85;;;20.30;40.50;;;;;;5098187;28;20026;-37
2021/12/17 09:27:09;;;;;;;16.13;9.10;;;20.40;40.50;;;;;;5117414;28;20099;-37
2021/12/17 09:29:35;;;;;;;14.43;8.57;;;20.30;40.50;;;;;;5098771;28;20054;-37
2021/12/17 09:32:01;;;;;;;15.27;9.23;;;20.30;40.50;;;;;;5116632;28;20484;-37
2021/12/17 09:34:27;;;;;;;16.33;9.57;;;20.40;40.60;;;;;;5116560;28;20028;-37
2021/12/17 09:36:53;;;;;;;16.88;9.38;;;20.30;40.60;;;;;;5117097;28;20024;-37
2021/12/17 09:39:19;;;;;;;16.88;9.38;;;20.40;40.60;;;;;;5117028;28;20099;-37
2021/12/17 09:41:50;;;;;;;18.42;9.38;;;20.40;40.60;;;;;;5098701;28;20032;-36
2021/12/17 09:44:17;;;;;;;17.63;9.48;;;20.40;40.60;;;;;;5083147;28;20119;-37
2021/12/17 09:46:46;;;;;;;16.80;9.65;;;20.40;40.60;;;;;;5116698;28;20032;-37
2021/12/17 09:49:12;;;;;;;20.35;9.38;;;20.40;40.60;;;;;;5116681;28;20020;-40
2021/12/17 09:51:38;;;;;;;17.23;9.23;;;20.40;40.60;;;;;;5116627;28;20027;-37
2021/12/17 09:54:04;;;;;;;18.52;9.50;;;20.40;40.60;;;;;;5098297;28;20020;-37
2021/12/17 09:56:30;;;;;;;18.25;9.57;;;20.50;40.60;;;;;;5116543;28;20026;-38
2021/12/17 09:58:56;;;;;;;19.17;9.98;;;20.50;40.50;;;;;;5116067;28;20020;-37
2021/12/17 10:01:25;;;;;;;18.25;10.23;;;20.50;40.50;;;;;;5098255;28;20031;-37
2021/12/17 10:04:12;;;;;;;18.52;10.02;;;20.50;40.50;;;;;;5098299;28;20016;-38
2021/12/17 10:06:39;;;;;;;18.20;10.02;;;20.50;40.50;;;;;;5116067;28;20031;-38
2021/12/17 10:09:04;;;;;;;18.17;10.38;;;20.50;41.00;;;;;;5116588;28;20012;-39
2021/12/17 10:11:30;;;;;;;16.80;9.88;;;20.50;40.50;;;;;;5096850;28;20468;-39
2021/12/17 10:13:56;;;;;;;19.88;10.35;;;20.50;40.60;;;;;;5116036;28;20076;-38
2021/12/17 10:16:22;;;;;;;20.33;10.27;;;20.50;40.50;;;;;;5073506;28;20048;-38
2021/12/17 10:18:49;;;;;;;17.30;9.57;;;20.50;40.60;;;;;;5075105;28;20019;-38
2021/12/17 10:21:23;;;;;;;18.92;9.98;;;20.50;40.60;;;;;;5074517;28;20020;-39
2021/12/17 10:23:53;;;;;;;17.65;9.40;;;20.50;40.60;;;;;;5075907;28;20013;-40
2021/12/17 10:26:21;;;;;;;21.40;10.00;;;20.50;40.60;;;;;;5076565;28;20016;-39
2021/12/17 10:28:58;;;;;;;18.27;9.77;;;20.60;40.60;;;;;;5075331;28;20417;-39
2021/12/17 10:31:23;;;;;;;20.63;10.63;;;20.60;40.60;;;;;;5075239;28;20025;-39
2021/12/17 10:33:50;;;;;;;19.17;10.38;;;20.60;40.60;;;;;;5074992;28;20552;-38
2021/12/17 10:36:17;;;;;;;18.58;9.70;;;20.60;40.60;;;;;;5074857;28;20141;-39
2021/12/17 10:38:46;;;;;;;21.52;10.27;;;20.60;40.60;;;;;;5075272;28;20028;-46
2021/12/17 10:41:15;;;;;;;20.10;9.45;;;20.60;40.70;;;;;;5075149;28;20107;-42
2021/12/17 10:43:48;;;;;;;18.08;9.55;;;20.60;40.60;;;;;;5074565;28;20456;-40
2021/12/17 10:51:24;;;;;;;18.55;10.13;;;20.60;40.70;;;;;;5074661;28;20506;-41
2021/12/17 10:53:54;;;;;;;17.92;10.07;;;20.60;40.60;;;;;;5074158;28;20482;-40
2021/12/17 10:56:23;;;;;;;;;;;20.60;40.70;;;;;;5075021;28;20013;-41
2021/12/17 10:58:57;;;;;;;22.60;10.17;;;20.60;40.70;;;;;;5074629;28;19907;-40
2021/12/17 11:01:40;;;;;;;20.13;10.25;;;20.60;40.80;;;;;;5074685;28;20089;-38
2021/12/17 11:04:06;;;;;;;21.00;10.13;;;20.60;40.80;;;;;;5074730;28;20020;-37
2021/12/17 11:07:29;;;;;;;24.00;11.10;;;20.60;40.80;;;;;;5090171;28;20012;-37
2021/12/17 11:10:00;;;;;;;20.55;10.65;;;20.60;40.90;;;;;;5073604;28;20106;-37
2021/12/17 11:12:32;;;;;;;21.58;10.55;;;20.60;41.00;;;;;;5074405;28;20459;-37
2021/12/17 11:15:13;;;;;;;18.05;10.10;;;20.60;41.00;;;;;;5090204;28;20084;-37
2021/12/17 11:17:43;;;;;;;24.25;11.45;;;20.60;41.00;;;;;;5111912;28;20047;-37
2021/12/17 11:20:10;;;;;;;22.67;10.93;;;20.60;40.90;;;;;;5114800;28;20012;-37
2021/12/17 11:22:41;;;;;;;18.70;10.90;;;20.70;40.90;;;;;;5115095;28;20038;-44
2021/12/17 11:25:07;;;;;;;18.33;10.15;;;20.60;40.90;;;;;;5096731;28;20004;-38
2021/12/17 11:27:33;;;;;;;20.05;10.35;;;20.70;40.90;;;;;;5114819;28;20042;-38
2021/12/17 11:30:01;;;;;;;20.70;11.20;;;20.80;40.90;;;;;;5096406;28;20024;-38
2021/12/17 11:32:27;;;;;;;20.08;10.77;;;20.80;41.00;;;;;;5096909;28;20039;-38
2021/12/17 11:34:53;;;;;;;22.00;11.23;;;20.80;41.10;;;;;;5114782;28;20475;-38
2021/12/17 11:37:19;;;;;;;20.08;10.65;;;20.70;40.90;;;;;;5097134;28;20023;-39
2021/12/17 11:39:57;;;;;;;22.50;11.50;;;20.70;41.00;;;;;;5080005;28;20405;-37
2021/12/17 11:42:29;;;;;;;20.52;10.82;;;20.80;41.00;;;;;;5115040;28;20022;-37
2021/12/17 11:47:44;;;;;;;20.73;10.73;;;20.80;41.00;;;;;;5115071;28;20066;-37
2021/12/17 11:50:11;;;;;;;19.63;10.73;;;20.80;41.00;;;;;;5096351;28;20492;-38
2021/12/17 11:52:51;;;;;;;19.42;10.90;;;20.80;41.00;;;;;;5114425;28;20012;-37
2021/12/17 11:55:20;;;;;;;;;;;20.80;41.10;;;;;;5114858;28;20015;-37
2021/12/17 11:57:47;;;;;;;20.85;10.60;;;20.80;41.10;;;;;;5114420;28;19899;-37
2021/12/17 12:00:18;;;;;;;21.17;10.85;;;20.80;41.00;;;;;;5114542;28;20012;-37
2021/12/17 12:02:47;;;;;;;;;;;20.80;41.00;;;;;;5115115;28;20050;-37
2021/12/17 12:05:33;;;;;;;19.00;11.00;;;20.90;41.10;;;;;;5114622;28;19907;-37
2021/12/17 12:08:21;;;;;;;18.00;10.85;;;20.80;41.00;;;;;;5081247;28;20098;-37
2021/12/17 12:11:22;;;;;;;18.52;10.25;;;20.80;41.10;;;;;;5114178;28;20429;-38
2021/12/17 12:13:54;;;;;;;17.45;10.25;;;20.80;41.10;;;;;;5113451;28;20031;-38
2021/12/17 12:16:26;;;;;;;18.67;10.10;;;20.80;41.10;;;;;;5113808;28;20054;-37
2021/12/17 12:18:57;;;;;;;19.92;11.10;;;20.90;41.20;;;;;;5113979;28;20026;-37
2021/12/17 12:21:31;;;;;;;17.20;10.45;;;20.80;41.20;;;;;;5114242;28;20072;-37
2021/12/17 12:24:10;;;;;;;17.08;10.05;;;20.90;41.20;;;;;;5096631;28;20458;-37
2021/12/17 12:26:48;;;;;;;17.35;9.75;;;20.90;41.20;;;;;;5096032;28;20004;-38
2021/12/17 12:29:22;;;;;;;15.77;10.35;;;20.90;41.20;;;;;;5113942;28;20015;-37
2021/12/17 12:31:56;;;;;;;17.90;9.60;;;20.90;41.20;;;;;;5113975;28;20089;-37
2021/12/17 12:34:34;;;;;;;17.02;9.75;;;20.90;41.20;;;;;;5113798;28;20031;-37
2021/12/17 12:37:22;;;;;;;16.80;9.32;;;20.90;41.20;;;;;;5113840;28;20015;-37
2021/12/17 12:39:50;;;;;;;16.92;9.70;;;20.90;41.20;;;;;;5078316;28;20020;-37
2021/12/17 12:42:28;;;;;;;18.83;9.82;;;20.90;41.20;;;;;;5113424;28;20020;-37
2021/12/17 12:44:57;;;;;;;13.60;9.07;;;20.90;41.80;;;;;;5095482;28;20090;-37
2021/12/17 12:47:26;;;;;;;15.43;9.77;;;20.90;41.20;;;;;;5113666;28;20038;-36
2021/12/17 12:50:09;;;;;;;14.98;9.25;;;20.90;41.30;;;;;;5113350;28;20068;-37
2021/12/17 12:52:46;;;;;;;15.73;9.73;;;20.90;41.20;;;;;;5113759;28;20022;-36
2021/12/17 12:55:41;;;;;;;16.83;9.15;;;21.00;41.30;;;;;;5096859;28;20032;-36
2021/12/17 12:58:13;;;;;;;15.73;8.55;;;21.00;41.20;;;;;;5113318;28;20104;-36
2021/12/17 13:00:58;;;;;;;14.95;9.20;;;21.00;41.30;;;;;;5095545;28;20023;-36
2021/12/17 13:03:25;;;;;;;14.55;8.93;;;21.00;41.30;;;;;;5096276;28;20107;-36
2021/12/17 13:05:51;;;;;;;14.27;9.05;;;21.00;41.30;;;;;;5095372;28;20053;-37
2021/12/17 13:08:18;;;;;;;15.30;8.82;;;21.00;41.30;;;;;;5113473;28;20016;-36
2021/12/17 13:10:50;;;;;;;14.65;8.43;;;21.00;41.30;;;;;;5113633;28;20008;-36
2021/12/17 13:21:16;;;;;;;12.10;7.72;;;21.00;41.30;;;;;;5113827;28;20023;-37
2021/12/17 13:23:49;;;;;;;12.13;7.65;;;21.10;41.30;;;;;;5113347;28;20016;-36
2021/12/17 13:26:18;;;;;;;13.30;7.90;;;21.00;41.30;;;;;;5113567;28;20047;-37
2021/12/17 13:28:50;;;;;;;12.38;7.75;;;21.10;41.30;;;;;;5113942;28;20023;-36
2021/12/17 13:31:48;;;;;;;14.30;8.15;;;21.10;41.30;;;;;;5113791;28;20011;-36
2021/12/17 13:34:28;;;;;;;14.10;7.78;;;21.10;41.20;;;;;;5058231;28;20024;-36
2021/12/17 13:37:16;;;;;;;12.57;7.80;;;21.10;41.30;;;;;;5113021;28;20012;-37
2021/12/17 13:39:47;;;;;;;11.50;7.68;;;21.10;41.30;;;;;;5113241;28;20072;-36
2021/12/17 13:42:30;;;;;;;10.60;7.20;;;21.10;41.30;;;;;;5113302;28;20016;-36
2021/12/17 13:44:59;;;;;;;12.65;7.40;;;21.10;41.30;;;;;;5113573;28;20043;-36
2021/12/17 13:47:26;;;;;;;10.60;7.03;;;21.10;41.30;;;;;;5113148;28;20480;-36
2021/12/17 13:50:29;;;;;;;12.77;7.78;;;21.10;41.30;;;;;;5115033;28;20104;-36
2021/12/17 13:53:06;;;;;;;10.35;7.28;;;21.10;41.30;;;;;;5117751;28;20031;-36
2021/12/17 13:55:34;;;;;;;11.60;7.10;;;21.20;41.30;;;;;;5118894;28;20016;-37
2021/12/17 13:58:02;;;;;;;12.40;7.72;;;21.10;41.30;;;;;;5118783;28;20072;-36
2021/12/17 14:00:33;;;;;;;11.88;7.35;;;21.20;41.30;;;;;;5117515;28;20492;-36
2021/12/17 14:02:59;;;;;;;12.10;7.97;;;21.20;41.30;;;;;;5116635;28;20537;-36
2021/12/17 14:05:29;;;;;;;9.82;7.07;;;21.10;41.30;;;;;;5116701;28;20043;-36
2021/12/17 14:07:56;;;;;;;10.05;6.88;;;21.20;41.30;;;;;;5116719;28;20008;-36
2021/12/17 14:10:33;;;;;;;12.05;7.78;;;21.20;41.30;;;;;;5098688;28;20004;-36
2021/12/17 14:13:00;;;;;;;10.50;7.40;;;21.20;41.20;;;;;;5116536;28;20077;-37
2021/12/17 14:15:31;;;;;;;10.07;7.07;;;21.20;41.30;;;;;;5097902;28;20015;-36
2021/12/17 14:17:59;;;;;;;12.43;7.78;;;21.20;41.30;;;;;;5116033;28;20091;-37
2021/12/17 14:20:38;;;;;;;12.63;7.32;;;21.20;41.30;;;;;;5116336;28;20020;-36
2021/12/17 14:23:06;;;;;;;11.73;7.28;;;21.20;41.20;;;;;;5115964;28;20016;-37
2021/12/17 14:25:40;;;;;;;10.52;6.72;;;21.30;41.30;;;;;;5116145;28;20446;-40
2021/12/17 14:28:25;;;;;;;10.68;7.55;;;21.30;41.30;;;;;;5116258;28;20008;-38
2021/12/17 14:31:00;;;;;;;11.77;6.60;;;21.20;41.30;;;;;;5097759;28;20023;-37
2021/12/17 14:33:31;;;;;;;10.70;7.22;;;21.20;41.20;;;;;;5116116;28;20020;-37
2021/12/17 14:36:04;;;;;;;10.43;7.05;;;21.20;41.30;;;;;;5115845;28;20012;-37
2021/12/17 14:38:43;;;;;;;11.55;7.28;;;21.30;41.30;;;;;;5116022;28;20458;-38
2021/12/17 14:41:23;;;;;;;11.45;7.05;;;21.20;41.30;;;;;;5097741;28;20019;-39
2021/12/17 14:43:58;;;;;;;11.30;7.40;;;21.20;41.30;;;;;;5116069;28;20016;-39
2021/12/17 14:46:27;;;;;;;10.00;7.00;;;21.30;41.40;;;;;;5115660;28;20027;-39
2021/12/17 15:05:06;;;;;;;9.32;6.90;;;21.40;41.40;;;;;;5097236;28;20066;-41
2021/12/17 15:07:39;;;;;;;11.73;7.68;;;21.40;41.30;;;;;;5115085;28;20553;-40
2021/12/17 15:10:07;;;;;;;10.27;7.60;;;21.40;41.30;;;;;;5115296;28;20035;-42
2021/12/17 15:15:03;;;;;;;11.07;7.72;;;21.30;41.30;;;;;;5115238;28;20436;-40
2021/12/17 15:17:29;;;;;;;11.45;7.90;;;21.30;41.30;;;;;;5115080;28;20115;-43
2021/12/17 15:19:55;;;;;;;9.65;7.50;;;21.30;41.30;;;;;;5096721;28;20066;-40
2021/12/17 15:22:21;;;;;;;12.10;8.05;;;21.40;41.30;;;;;;5115129;28;20367;-45
2021/12/17 15:24:46;;;;;;;10.13;7.40;;;21.40;41.30;;;;;;5114986;28;20064;-42
2021/12/17 15:27:13;;;;;;;10.88;7.47;;;21.40;41.40;;;;;;5115708;28;20095;-42
2021/12/17 15:29:39;;;;;;;11.43;7.35;;;21.50;41.30;;;;;;5115939;28;20480;-43
2021/12/17 15:32:05;;;;;;;10.50;7.20;;;21.40;41.30;;;;;;5115012;28;20019;-46
2021/12/17 15:34:31;;;;;;;9.27;7.30;;;21.50;41.40;;;;;;5115389;28;20097;-43
2021/12/17 15:36:58;;;;;;;10.55;7.43;;;21.50;41.40;;;;;;5115232;28;20020;-44
2021/12/17 15:39:26;;;;;;;9.20;7.38;;;21.40;41.20;;;;;;5096900;28;20157;-44
2021/12/17 15:41:52;;;;;;;10.60;7.90;;;21.40;41.30;;;;;;5114688;28;20100;-42
2021/12/17 15:44:20;;;;;;;9.20;7.25;;;21.50;41.40;;;;;;5096356;28;20450;-44
2021/12/17 15:46:46;;;;;;;10.80;7.82;;;21.40;41.30;;;;;;5096450;28;20020;-48
2021/12/17 15:49:12;;;;;;;9.52;7.25;;;21.50;41.30;;;;;;5114609;28;20110;-43
2021/12/17 15:51:38;;;;;;;10.10;7.68;;;21.50;41.40;;;;;;5096394;28;20024;-43
2021/12/17 15:54:05;;;;;;;9.80;7.45;;;21.50;41.40;;;;;;5114390;28;20048;-44
2021/12/17 15:56:32;;;;;;;8.80;6.85;;;21.50;41.80;;;;;;5114459;28;20122;-44